G.commander — DSQR5 — position and weather

sailwx.info

Track history (hours):
 
Tides and Currents Weather Stations Pressure Air Temp Water Temp Dewpoint Dewpoint Depression Visibility Wind Speed Wind Dir Waves Ship Positions

G.commander

Last reported at 2014-Sep-01 10:14 UTC. Time now 2014-Sep-03 02:30 UTC.
Position N 01°12' E 103°41'.

Length 230 m; draft 8.2 m.

Type: Tanker. MMSI: 441681000.

Date/timePositionNaut miles runAvg speedWind from/ knotsBaromVisibWave heightAir tempDewpointWater temp
2014-Sep-01 10:14N 01°12' E 103°41'0 0.0
2014-Sep-01 09:26N 01°12' E 103°41'0 0.0
2014-Sep-01 08:32N 01°12' E 103°41'0 0.0
2014-Sep-01 07:33N 01°12' E 103°41'0 0.1
2014-Sep-01 06:27N 01°12' E 103°41'0 0.0
2014-Sep-01 05:30N 01°12' E 103°41'0 0.1
2014-Sep-01 03:33N 01°12' E 103°41'0 0.0
2014-Sep-01 02:30N 01°12' E 103°41'2 2.0
2014-Sep-01 01:20N 01°10' E 103°42'7 9.1
2014-Sep-01 00:33N 01°11' E 103°49'1110.6
2014-Aug-31 23:33N 01°15' E 103°59'  
2014-Aug-22 18:17N 34°29' E 138°31'3114.3
2014-Aug-22 16:06N 34°32' E 139°08'1313.9
2014-Aug-22 15:08N 34°37' E 139°24'813.4
2014-Aug-22 14:33N 34°40' E 139°32'1414.0
2014-Aug-22 13:33N 34°46' E 139°48'1413.9
2014-Aug-22 12:34N 34°52' E 140°03'1313.3
2014-Aug-22 11:33N 34°58' E 140°18'1312.8
2014-Aug-22 10:31N 35°05' E 140°31'  
Track history (hours):
 
Tides and Currents Weather Stations Pressure Air Temp Water Temp Dewpoint Dewpoint Depression Visibility Wind Speed Wind Dir Waves Ship Positions

G.commander

Last reported at 2014-Sep-01 10:14 UTC. Time now 2014-Sep-03 02:30 UTC.
Position N 01°12' E 103°41'.

Length 230 m; draft 8.2 m.

Type: Tanker. MMSI: 441681000.

Date/timePositionNaut miles runAvg speedWind from/ knotsBaromVisibWave heightAir tempDewpointWater temp
2014-Sep-01 10:14N 01°12' E 103°41'0 0.0
2014-Sep-01 09:26N 01°12' E 103°41'0 0.0
2014-Sep-01 08:32N 01°12' E 103°41'0 0.0
2014-Sep-01 07:33N 01°12' E 103°41'0 0.1
2014-Sep-01 06:27N 01°12' E 103°41'0 0.0
2014-Sep-01 05:30N 01°12' E 103°41'0 0.1
2014-Sep-01 03:33N 01°12' E 103°41'0 0.0
2014-Sep-01 02:30N 01°12' E 103°41'2 2.0
2014-Sep-01 01:20N 01°10' E 103°42'7 9.1
2014-Sep-01 00:33N 01°11' E 103°49'1110.6
2014-Aug-31 23:33N 01°15' E 103°59'  
2014-Aug-22 18:17N 34°29' E 138°31'3114.3
2014-Aug-22 16:06N 34°32' E 139°08'1313.9
2014-Aug-22 15:08N 34°37' E 139°24'813.4
2014-Aug-22 14:33N 34°40' E 139°32'1414.0
2014-Aug-22 13:33N 34°46' E 139°48'1413.9
2014-Aug-22 12:34N 34°52' E 140°03'1313.3
2014-Aug-22 11:33N 34°58' E 140°18'1312.8
2014-Aug-22 10:31N 35°05' E 140°31'  

Dump ship's entire track history